createdAt,value
2023-01-02T00:00:47.550Z,101904.22
2023-01-02T00:03:18.920Z,101902.47
2023-01-02T00:05:50.475Z,101902.44
2023-01-02T00:08:21.901Z,101890.28
2023-01-02T00:10:53.245Z,101898.38
2023-01-02T00:13:25.749Z,101881.31
2023-01-02T00:15:57.168Z,101870.47
2023-01-02T00:18:28.319Z,101884.06
2023-01-02T00:20:59.274Z,101876.63
2023-01-02T00:23:30.264Z,101885.88
2023-01-02T00:26:01.899Z,101872.22
2023-01-02T00:28:33.229Z,101867.59
2023-01-02T00:31:13.792Z,101866.84
2023-01-02T00:33:46.160Z,101861.75
2023-01-02T00:36:17.526Z,101851.34
2023-01-02T00:38:48.573Z,101849.47
2023-01-02T00:41:22.919Z,101849.75
2023-01-02T00:43:54.111Z,101837.50
2023-01-02T00:46:24.711Z,101848.19
2023-01-02T00:48:55.805Z,101850.25
2023-01-02T00:51:26.975Z,101841.31
2023-01-02T00:53:57.861Z,101847.75
2023-01-02T00:56:29.196Z,101844.69
2023-01-02T00:59:00.585Z,101848.31
2023-01-02T01:01:31.871Z,101846.91
2023-01-02T01:04:03.518Z,101837.97
2023-01-02T01:06:35.995Z,101841.53
2023-01-02T01:09:07.172Z,101831.22
2023-01-02T01:11:37.897Z,101833.09
2023-01-02T01:14:09.002Z,101826.84
2023-01-02T01:16:40.257Z,101837.19
2023-01-02T01:19:11.297Z,101840.66
2023-01-02T01:21:42.303Z,101838.56
2023-01-02T01:24:13.524Z,101832.59
2023-01-02T01:26:44.622Z,101827.19
2023-01-02T01:29:15.671Z,101827.66
2023-01-02T01:31:46.723Z,101819.19
2023-01-02T01:34:17.727Z,101825.69
2023-01-02T01:36:48.738Z,101804.88
2023-01-02T01:39:20.050Z,101800.56
2023-01-02T01:41:51.834Z,101812.13
2023-01-02T01:44:45.050Z,101818.72
2023-01-02T01:47:41.742Z,101804.09
2023-01-02T01:50:22.199Z,101813.66
2023-01-02T01:53:13.452Z,101812.22
2023-01-02T01:55:52.854Z,101804.72
2023-01-02T01:58:29.894Z,101803.38
2023-01-02T02:01:01.530Z,101804.72
2023-01-02T02:03:34.293Z,101799.38
2023-01-02T02:06:05.965Z,101800.03
2023-01-02T02:08:50.463Z,101781.63
2023-01-02T02:11:21.850Z,101784.53
2023-01-02T02:13:53.331Z,101793.94
2023-01-02T02:16:42.447Z,101804.34
2023-01-02T02:19:44.613Z,101799.19
2023-01-02T02:22:25.463Z,101790.97
2023-01-02T02:25:21.860Z,101788.72
2023-01-02T02:27:53.047Z,101788.31
2023-01-02T02:30:25.898Z,101787.19
2023-01-02T02:33:13.832Z,101798.25
2023-01-02T02:35:50.907Z,101788.88
2023-01-02T02:38:28.073Z,101788.31
2023-01-02T02:41:06.353Z,101769.91
2023-01-02T02:44:11.135Z,101791.06
2023-01-02T02:47:02.001Z,101796.41
2023-01-02T02:49:59.904Z,101774.84
2023-01-02T02:52:44.434Z,101770.75
2023-01-02T02:55:21.486Z,101779.41
2023-01-02T02:57:53.283Z,101776.22
2023-01-02T03:00:26.140Z,101777.88
2023-01-02T03:02:57.126Z,101774.38
2023-01-02T03:05:38.348Z,101769.09
2023-01-02T03:08:22.248Z,101781.13
2023-01-02T03:11:00.988Z,101785.56
2023-01-02T03:13:47.416Z,101772.63
2023-01-02T03:16:28.372Z,101758.69
2023-01-02T03:19:07.493Z,101773.22
2023-01-02T03:22:01.941Z,101773.91
2023-01-02T03:24:33.604Z,101772.63
2023-01-02T03:27:04.978Z,101784.97
2023-01-02T03:29:41.017Z,101772.78
2023-01-02T03:32:21.100Z,101759.03
2023-01-02T03:34:52.707Z,101766.84
2023-01-02T03:37:25.202Z,101763.72
2023-01-02T03:39:59.552Z,101757.72
2023-01-02T03:42:34.657Z,101754.88
2023-01-02T03:45:14.517Z,101760.44
2023-01-02T03:47:51.716Z,101738.72
2023-01-02T03:50:56.216Z,101737.94
2023-01-02T03:53:27.844Z,101739.94
2023-01-02T03:56:19.551Z,101743.34
2023-01-02T03:59:02.780Z,101739.06
2023-01-02T04:01:44.092Z,101736.41
2023-01-02T04:04:23.875Z,101721.97
2023-01-02T04:07:02.212Z,101718.03
2023-01-02T04:09:35.561Z,101715.75
2023-01-02T04:12:12.710Z,101698.84
2023-01-02T04:14:50.458Z,101718.44
2023-01-02T04:17:23.046Z,101706.00
2023-01-02T04:20:01.349Z,101712.50
2023-01-02T04:22:45.857Z,101697.44
2023-01-02T04:25:19.017Z,101704.13
2023-01-02T04:28:00.927Z,101697.66
2023-01-02T04:30:32.964Z,101696.84
2023-01-02T04:33:09.063Z,101692.22
2023-01-02T04:35:40.141Z,101696.38
2023-01-02T04:38:12.810Z,101692.41
2023-01-02T04:40:44.077Z,101697.41
2023-01-02T04:43:23.218Z,101681.84
2023-01-02T04:45:55.279Z,101687.97
2023-01-02T04:48:26.747Z,101683.09
2023-01-02T04:50:58.151Z,101678.16
2023-01-02T04:53:29.344Z,101682.38
2023-01-02T04:56:01.225Z,101679.97
2023-01-02T04:58:31.744Z,101673.41
2023-01-02T05:01:03.222Z,101679.63
2023-01-02T05:03:34.157Z,101683.53
2023-01-02T05:06:05.027Z,101665.28
2023-01-02T05:08:36.701Z,101683.69
2023-01-02T05:11:10.630Z,101682.22
2023-01-02T05:13:41.593Z,101673.50
2023-01-02T05:16:13.455Z,101683.34
2023-01-02T05:18:44.814Z,101682.63
2023-01-02T05:21:35.345Z,101687.00
2023-01-02T05:24:07.140Z,101694.09
2023-01-02T05:26:38.834Z,101691.84
2023-01-02T05:29:09.612Z,101695.06
2023-01-02T05:31:40.767Z,101685.59
2023-01-02T05:34:16.293Z,101693.16
2023-01-02T05:36:50.184Z,101687.97
2023-01-02T05:39:25.091Z,101688.94
2023-01-02T05:41:55.914Z,101686.25
2023-01-02T05:44:26.884Z,101684.91
2023-01-02T05:46:58.630Z,101687.13
2023-01-02T05:49:29.564Z,101686.69
2023-01-02T05:52:00.764Z,101694.75
2023-01-02T05:54:31.898Z,101689.28
2023-01-02T05:57:02.887Z,101690.53
2023-01-02T05:59:36.225Z,101694.41
2023-01-02T06:02:07.805Z,101686.78
2023-01-02T06:04:38.891Z,101695.03
2023-01-02T06:07:10.335Z,101697.19
2023-01-02T06:09:41.499Z,101697.22
2023-01-02T06:12:12.890Z,101688.25
2023-01-02T06:14:44.189Z,101688.94
2023-01-02T06:17:15.374Z,101703.81
2023-01-02T06:19:53.533Z,101691.47
2023-01-02T06:22:25.244Z,101707.63
2023-01-02T06:24:56.129Z,101711.78
2023-01-02T06:27:27.684Z,101712.59
2023-01-02T06:29:58.825Z,101705.19
2023-01-02T06:32:29.910Z,101715.25
2023-01-02T06:35:01.377Z,101715.00
2023-01-02T06:37:32.577Z,101726.75
2023-01-02T06:40:03.642Z,101726.75
2023-01-02T06:42:35.346Z,101740.44
2023-01-02T06:45:07.463Z,101742.09
2023-01-02T06:47:39.267Z,101727.38
2023-01-02T06:50:12.032Z,101735.81
2023-01-02T06:52:43.164Z,101736.91
2023-01-02T06:55:14.061Z,101744.28
2023-01-02T06:57:47.432Z,101731.72
2023-01-02T07:00:19.828Z,101751.44
2023-01-02T07:02:50.912Z,101741.31
2023-01-02T07:05:24.702Z,101748.69
2023-01-02T07:07:56.207Z,101754.16
2023-01-02T07:10:27.412Z,101740.22
2023-01-02T07:12:58.420Z,101742.13
2023-01-02T07:15:29.755Z,101742.97
2023-01-02T07:18:01.068Z,101738.88
2023-01-02T07:20:32.157Z,101720.31
2023-01-02T07:23:03.170Z,101726.03
2023-01-02T07:25:36.134Z,101733.41
2023-01-02T07:28:10.650Z,101731.19
2023-01-02T07:30:43.053Z,101729.25
2023-01-02T07:33:14.922Z,101738.31
2023-01-02T07:35:49.371Z,101736.91
2023-01-02T07:38:20.465Z,101736.34
2023-01-02T07:41:21.618Z,101740.19
2023-01-02T07:44:04.761Z,101742.94
2023-01-02T07:46:36.263Z,101749.47
2023-01-02T07:49:07.226Z,101758.47
2023-01-02T07:51:38.352Z,101762.56
2023-01-02T07:54:09.635Z,101760.13
2023-01-02T07:56:40.834Z,101751.06
2023-01-02T07:59:12.094Z,101761.19
2023-01-02T08:01:43.129Z,101750.78
2023-01-02T08:04:14.755Z,101762.56
2023-01-02T08:06:46.004Z,101772.09
2023-01-02T08:09:42.238Z,101770.75
2023-01-02T08:12:13.339Z,101779.72
2023-01-02T08:14:44.617Z,101774.84
2023-01-02T08:17:15.490Z,101772.38
2023-01-02T08:19:47.297Z,101781.94
2023-01-02T08:22:19.338Z,101783.59
2023-01-02T08:24:50.586Z,101779.47
2023-01-02T08:27:21.754Z,101787.69
2023-01-02T08:29:53.794Z,101791.22
2023-01-02T08:32:24.824Z,101789.31
2023-01-02T08:34:57.179Z,101796.69
2023-01-02T08:37:28.521Z,101802.16
2023-01-02T08:39:59.600Z,101799.34
2023-01-02T08:42:30.737Z,101799.38
2023-01-02T08:45:02.694Z,101791.19
2023-01-02T08:47:33.198Z,101800.19
2023-01-02T08:50:05.096Z,101804.31
2023-01-02T08:52:36.548Z,101795.25
2023-01-02T08:55:08.267Z,101795.53
2023-01-02T08:57:39.403Z,101794.72
2023-01-02T09:00:11.203Z,101790.88
2023-01-02T09:02:42.343Z,101794.69
2023-01-02T09:05:13.707Z,101791.66
2023-01-02T09:07:44.855Z,101805.56
2023-01-02T09:10:16.147Z,101820.84
2023-01-02T09:12:47.327Z,101812.91
2023-01-02T09:15:18.930Z,101818.91
2023-01-02T09:17:49.786Z,101816.75
2023-01-02T09:20:21.051Z,101811.56
2023-01-02T09:22:52.154Z,101816.47
2023-01-02T09:25:24.531Z,101826.00
2023-01-02T09:27:55.859Z,101818.38
2023-01-02T09:30:27.257Z,101824.69
2023-01-02T09:32:58.209Z,101807.75
2023-01-02T09:35:29.341Z,101822.75
2023-01-02T09:38:00.418Z,101821.44
2023-01-02T09:40:32.063Z,101826.31
2023-01-02T09:43:03.396Z,101833.44
2023-01-02T09:45:34.372Z,101843.53
2023-01-02T09:48:05.997Z,101832.06
2023-01-02T09:50:38.354Z,101836.97
2023-01-02T09:53:09.328Z,101825.81
2023-01-02T09:55:59.925Z,101820.25
2023-01-02T09:58:49.334Z,101829.00
2023-01-02T10:01:40.577Z,101837.66
2023-01-02T10:04:32.711Z,101831.91
2023-01-02T10:07:15.785Z,101831.63
2023-01-02T10:10:26.072Z,101839.00
2023-01-02T10:13:03.435Z,101842.78
2023-01-02T10:15:34.450Z,101826.88
2023-01-02T10:18:20.792Z,101833.66
2023-01-02T10:20:57.878Z,101836.44
2023-01-02T10:23:48.655Z,101835.31
2023-01-02T10:26:22.049Z,101841.59
2023-01-02T10:29:05.031Z,101839.19
2023-01-02T10:31:52.211Z,101842.94
2023-01-02T10:34:28.447Z,101840.38
2023-01-02T10:37:03.044Z,101835.22
2023-01-02T10:39:39.252Z,101840.94
2023-01-02T10:42:15.916Z,101833.03
2023-01-02T10:44:48.729Z,101844.50
2023-01-02T10:47:34.595Z,101847.00
2023-01-02T10:50:32.981Z,101842.63
2023-01-02T10:53:22.968Z,101849.72
2023-01-02T10:55:54.403Z,101839.88
2023-01-02T10:58:28.112Z,101838.81
2023-01-02T11:01:07.350Z,101833.34
2023-01-02T11:03:38.633Z,101829.78
2023-01-02T11:06:29.307Z,101827.31
2023-01-02T11:09:17.483Z,101834.44
2023-01-02T11:11:54.670Z,101827.59
2023-01-02T11:14:35.174Z,101833.28
2023-01-02T11:17:16.771Z,101817.19
2023-01-02T11:19:51.403Z,101818.84
2023-01-02T11:22:38.979Z,101824.03
2023-01-02T11:25:23.122Z,101821.56
2023-01-02T11:27:54.676Z,101824.06
2023-01-02T11:30:33.173Z,101835.47
2023-01-02T11:33:08.413Z,101835.19
2023-01-02T11:35:40.797Z,101833.22
2023-01-02T11:38:21.645Z,101824.34
2023-01-02T11:41:03.661Z,101821.88
2023-01-02T11:43:52.109Z,101828.22
2023-01-02T11:46:37.924Z,101815.38
2023-01-02T11:49:24.740Z,101804.78
2023-01-02T11:52:21.633Z,101808.34
2023-01-02T11:55:06.034Z,101814.09
2023-01-02T11:57:51.838Z,101808.13
2023-01-02T12:00:23.869Z,101801.84
2023-01-02T12:02:54.701Z,101804.88
2023-01-02T12:05:34.892Z,101795.59
2023-01-02T12:08:43.287Z,101789.78
2023-01-02T12:11:29.852Z,101808.44
2023-01-02T12:14:19.429Z,101805.41
2023-01-02T12:17:00.814Z,101800.97
2023-01-02T12:20:03.359Z,101804.88
2023-01-02T12:22:56.122Z,101800.47
2023-01-02T12:25:45.612Z,101799.41
2023-01-02T12:28:37.471Z,101801.06
2023-01-02T12:32:05.980Z,101782.44
2023-01-02T12:35:21.172Z,101784.44
2023-01-02T12:37:58.619Z,101798.38
2023-01-02T12:40:44.891Z,101784.69
2023-01-02T12:43:27.909Z,101794.50
2023-01-02T12:46:21.873Z,101801.34
2023-01-02T12:49:31.166Z,101799.41
2023-01-02T12:52:32.218Z,101802.69
2023-01-02T12:55:28.499Z,101802.72
2023-01-02T12:58:08.571Z,101801.63
2023-01-02T13:01:11.087Z,101809.25
2023-01-02T13:04:00.417Z,101799.16
2023-01-02T13:06:46.696Z,101810.06
2023-01-02T13:09:26.141Z,101810.38
2023-01-02T13:12:18.263Z,101798.06
2023-01-02T13:14:58.537Z,101793.66
2023-01-02T13:17:38.070Z,101795.50
2023-01-02T13:20:35.515Z,101784.03
2023-01-02T13:23:21.908Z,101778.38
2023-01-02T13:25:59.353Z,101788.13
2023-01-02T13:28:30.577Z,101777.44
2023-01-02T13:31:44.680Z,101782.97
2023-01-02T13:34:01.003Z,101769.03
2023-01-02T13:36:39.460Z,101766.59
2023-01-02T13:39:23.972Z,101762.44
2023-01-02T13:42:14.152Z,101755.94
2023-01-02T13:45:08.695Z,101727.78
2023-01-02T13:47:41.062Z,101744.41
2023-01-02T13:50:37.005Z,101736.19
2023-01-02T13:53:13.909Z,101740.81
2023-01-02T13:55:45.271Z,101746.25
2023-01-02T13:58:22.154Z,101748.97
2023-01-02T14:00:57.983Z,101744.31
2023-01-02T14:03:34.053Z,101742.16
2023-01-02T14:06:35.184Z,101731.75
2023-01-02T14:09:16.872Z,101733.91
2023-01-02T14:11:56.643Z,101730.38
2023-01-02T14:14:34.907Z,101719.16
2023-01-02T14:17:46.017Z,101728.72
2023-01-02T14:20:21.403Z,101736.81
2023-01-02T14:23:07.126Z,101737.31
2023-01-02T14:25:48.942Z,101734.66
2023-01-02T14:28:29.641Z,101742.81
2023-01-02T14:31:01.115Z,101743.44
2023-01-02T14:33:35.756Z,101753.66
2023-01-02T14:36:11.901Z,101760.59
2023-01-02T14:38:45.785Z,101773.34
2023-01-02T14:42:12.903Z,101785.06
2023-01-02T14:44:50.185Z,101769.72
2023-01-02T14:47:29.327Z,101777.19
2023-01-02T14:50:02.445Z,101775.25
2023-01-02T14:52:39.299Z,101763.44
2023-01-02T14:55:24.178Z,101750.03
2023-01-02T14:57:56.767Z,101739.06
2023-01-02T15:00:34.530Z,101748.69
2023-01-02T15:03:35.598Z,101741.63
2023-01-02T15:06:29.742Z,101743.50
2023-01-02T15:09:08.980Z,101748.84
2023-01-02T15:11:58.111Z,101707.16
2023-01-02T15:14:29.413Z,101737.16
2023-01-02T15:17:02.682Z,101744.78
2023-01-02T15:19:35.185Z,101749.25
2023-01-02T15:22:14.407Z,101748.84
2023-01-02T15:24:55.880Z,101760.47
2023-01-02T15:27:27.285Z,101759.31
2023-01-02T15:30:01.168Z,101764.69
2023-01-02T15:32:35.559Z,101750.72
2023-01-02T15:35:16.009Z,101755.22
2023-01-02T15:37:49.154Z,101745.88
2023-01-02T15:40:33.443Z,101736.09
2023-01-02T15:43:31.060Z,101745.94
2023-01-02T15:46:02.633Z,101752.81
2023-01-02T15:48:34.305Z,101756.28
2023-01-02T15:51:05.044Z,101745.13
2023-01-02T15:53:42.498Z,101744.44
2023-01-02T15:56:36.543Z,101741.50
2023-01-02T15:59:26.016Z,101753.81
2023-01-02T16:01:57.777Z,101757.94
2023-01-02T16:04:34.048Z,101754.00
2023-01-02T16:07:26.477Z,101753.59
2023-01-02T16:09:59.119Z,101733.78
2023-01-02T16:12:30.127Z,101733.78
2023-01-02T16:15:01.970Z,101741.00
2023-01-02T16:17:39.840Z,101750.31
2023-01-02T16:20:16.997Z,101748.41
2023-01-02T16:23:01.671Z,101752.78
2023-01-02T16:25:33.631Z,101741.41
2023-01-02T16:28:35.779Z,101743.88
2023-01-02T16:31:14.417Z,101753.09
2023-01-02T16:33:47.254Z,101746.75
2023-01-02T16:36:26.085Z,101762.38
2023-01-02T16:39:00.852Z,101762.22
2023-01-02T16:41:43.942Z,101757.53
2023-01-02T16:44:17.082Z,101747.72
2023-01-02T16:46:50.987Z,101747.72
2023-01-02T16:49:24.023Z,101750.81
2023-01-02T16:51:56.339Z,101747.72
2023-01-02T16:54:27.584Z,101756.47
2023-01-02T16:56:58.908Z,101745.59
2023-01-02T16:59:31.754Z,101747.72
2023-01-02T17:02:03.278Z,101751.84
2023-01-02T17:04:34.893Z,101756.72
2023-01-02T17:07:06.309Z,101763.03
2023-01-02T17:09:37.715Z,101750.53
2023-01-02T17:12:09.436Z,101766.72
2023-01-02T17:14:40.535Z,101767.00
2023-01-02T17:17:11.794Z,101768.47
2023-01-02T17:19:43.026Z,101765.59
2023-01-02T17:22:13.835Z,101765.19
2023-01-02T17:24:45.048Z,101755.97
2023-01-02T17:27:16.164Z,101748.97
2023-01-02T17:29:47.571Z,101746.91
2023-01-02T17:32:19.002Z,101745.44
2023-01-02T17:34:50.082Z,101743.75
2023-01-02T17:37:23.318Z,101732.25
2023-01-02T17:39:54.996Z,101738.84
2023-01-02T17:42:26.524Z,101742.72
2023-01-02T17:44:57.769Z,101740.31
2023-01-02T17:47:58.722Z,101750.78
2023-01-02T17:50:20.241Z,101757.28
2023-01-02T17:52:51.159Z,101762.34
2023-01-02T17:55:22.395Z,101762.28
2023-01-02T17:57:53.307Z,101751.19
2023-01-02T18:00:24.812Z,101758.56
2023-01-02T18:02:55.957Z,101751.28
2023-01-02T18:05:27.257Z,101748.50
2023-01-02T18:07:58.681Z,101755.34
2023-01-02T18:10:33.081Z,101748.56
2023-01-02T18:13:05.014Z,101751.28
2023-01-02T18:15:36.464Z,101736.63
2023-01-02T18:18:14.273Z,101755.19
2023-01-02T18:20:47.965Z,101750.22
2023-01-02T18:23:19.067Z,101748.03
2023-01-02T18:25:50.462Z,101741.13
2023-01-02T18:28:26.320Z,101734.88
2023-01-02T18:30:59.820Z,101747.75
2023-01-02T18:33:31.252Z,101747.50
2023-01-02T18:36:04.614Z,101742.56
2023-01-02T18:38:39.837Z,101739.25
2023-01-02T18:41:31.594Z,101761.22
2023-01-02T18:44:09.243Z,101766.75
2023-01-02T18:47:04.039Z,101759.28
2023-01-02T18:49:39.500Z,101762.63
2023-01-02T18:52:14.017Z,101769.59
2023-01-02T18:54:51.345Z,101766.06
2023-01-02T18:57:33.541Z,101766.22
2023-01-02T19:00:30.257Z,101763.59
2023-01-02T19:03:12.584Z,101767.19
2023-01-02T19:05:47.320Z,101756.66
2023-01-02T19:08:33.257Z,101771.56
2023-01-02T19:11:24.772Z,101771.13
2023-01-02T19:13:58.926Z,101770.34
2023-01-02T19:16:30.168Z,101770.59
2023-01-02T19:19:02.839Z,101770.75
2023-01-02T19:21:34.742Z,101769.38
2023-01-02T19:24:25.691Z,101778.44
2023-01-02T19:27:00.235Z,101781.72
2023-01-02T19:29:35.863Z,101779.03
2023-01-02T19:32:32.179Z,101772.97
2023-01-02T19:35:27.946Z,101771.13
2023-01-02T19:37:59.359Z,101777.28
2023-01-02T19:40:30.366Z,101779.84
2023-01-02T19:43:01.383Z,101783.69
2023-01-02T19:45:34.872Z,101781.72
2023-01-02T19:48:05.901Z,101790.44
2023-01-02T19:50:36.810Z,101788.78
2023-01-02T19:53:08.341Z,101779.41
2023-01-02T19:55:39.472Z,101791.34
2023-01-02T19:58:10.767Z,101801.38
2023-01-02T20:00:41.762Z,101796.09
2023-01-02T20:03:13.680Z,101787.34
2023-01-02T20:05:44.807Z,101782.41
2023-01-02T20:08:15.995Z,101788.06
2023-01-02T20:10:47.387Z,101791.88
2023-01-02T20:13:18.288Z,101791.88
2023-01-02T20:15:49.258Z,101799.13
2023-01-02T20:18:20.360Z,101787.44
2023-01-02T20:20:51.890Z,101789.47
2023-01-02T20:23:22.903Z,101774.38
2023-01-02T20:25:53.975Z,101778.44
2023-01-02T20:28:25.089Z,101776.13
2023-01-02T20:30:56.443Z,101774.91
2023-01-02T20:33:27.521Z,101772.19
2023-01-02T20:35:59.847Z,101765.09
2023-01-02T20:38:32.804Z,101767.25
2023-01-02T20:41:07.526Z,101766.44
2023-01-02T20:43:38.868Z,101763.72
2023-01-02T20:46:10.222Z,101756.34
2023-01-02T20:48:42.116Z,101753.84
2023-01-02T20:51:17.012Z,101745.41
2023-01-02T20:53:48.514Z,101745.94
2023-01-02T20:56:19.751Z,101755.19
2023-01-02T20:58:53.103Z,101743.47
2023-01-02T21:01:25.286Z,101759.34
2023-01-02T21:03:57.222Z,101751.41
2023-01-02T21:06:28.295Z,101738.78
2023-01-02T21:08:59.402Z,101751.88
2023-01-02T21:11:31.825Z,101739.75
2023-01-02T21:14:04.838Z,101739.25
2023-01-02T21:16:35.944Z,101739.78
2023-01-02T21:19:07.251Z,101732.66
2023-01-02T21:21:38.567Z,101747.50
2023-01-02T21:24:10.014Z,101762.34
2023-01-02T21:26:41.110Z,101738.25
2023-01-02T21:29:12.461Z,101745.38
2023-01-02T21:31:43.473Z,101753.56
2023-01-02T21:34:15.204Z,101737.44
2023-01-02T21:36:46.513Z,101749.22
2023-01-02T21:39:17.663Z,101748.63
2023-01-02T21:42:06.562Z,101741.50
2023-01-02T21:44:37.513Z,101744.88
2023-01-02T21:47:08.542Z,101752.59
2023-01-02T21:49:39.769Z,101744.25
2023-01-02T21:52:11.062Z,101746.97
2023-01-02T21:54:42.273Z,101760.72
2023-01-02T21:57:13.607Z,101752.78
2023-01-02T21:59:44.738Z,101753.56
2023-01-02T22:02:15.727Z,101749.91
2023-01-02T22:04:47.659Z,101738.78
2023-01-02T22:07:31.560Z,101735.41
2023-01-02T22:10:03.711Z,101734.84
2023-01-02T22:12:36.871Z,101727.72
2023-01-02T22:15:10.474Z,101720.94
2023-01-02T22:17:41.892Z,101713.06
2023-01-02T22:20:13.206Z,101698.66
2023-01-02T22:22:44.099Z,101728.09
2023-01-02T22:25:15.128Z,101711.03
2023-01-02T22:27:46.219Z,101711.66
2023-01-02T22:30:22.114Z,101711.84
2023-01-02T22:32:56.423Z,101707.25
2023-01-02T22:35:29.868Z,101701.13
2023-01-02T22:38:01.008Z,101685.81
2023-01-02T22:40:31.972Z,101694.84
2023-01-02T22:43:06.441Z,101693.06
2023-01-02T22:45:50.076Z,101691.53
2023-01-02T22:48:27.622Z,101690.09
2023-01-02T22:51:00.782Z,101687.09
2023-01-02T22:53:34.430Z,101673.72
2023-01-02T22:56:18.257Z,101679.06
2023-01-02T22:58:50.287Z,101689.81
2023-01-02T23:01:30.032Z,101673.56
2023-01-02T23:04:01.308Z,101683.50
2023-01-02T23:06:35.533Z,101679.78
2023-01-02T23:09:12.776Z,101668.28
2023-01-02T23:11:44.553Z,101683.75
2023-01-02T23:14:17.122Z,101696.31
2023-01-02T23:17:06.323Z,101684.47
2023-01-02T23:19:40.783Z,101695.56
2023-01-02T23:22:11.904Z,101685.06
2023-01-02T23:24:46.447Z,101665.56
2023-01-02T23:27:19.424Z,101696.94
2023-01-02T23:29:51.257Z,101675.53
2023-01-02T23:32:22.656Z,101691.34
2023-01-02T23:34:55.136Z,101687.72
2023-01-02T23:37:27.563Z,101691.91
2023-01-02T23:39:58.713Z,101700.56
2023-01-02T23:42:29.723Z,101686.75
2023-01-02T23:45:01.110Z,101694.19
2023-01-02T23:47:33.794Z,101693.16
2023-01-02T23:50:05.160Z,101670.00
2023-01-02T23:52:36.108Z,101704.38
2023-01-02T23:55:07.567Z,101693.38
2023-01-02T23:57:38.330Z,101683.63
